sensor_id;sensor_type;location;lat;lon;timestamp;P1;durP1;ratioP1;P2;durP2;ratioP2
13114;SDS011;6623;52.120;8.660;2024-03-08T00:00:13;3.10;;;2.60;;
13114;SDS011;6623;52.120;8.660;2024-03-08T00:02:45;3.17;;;2.80;;
13114;SDS011;6623;52.120;8.660;2024-03-08T00:05:11;3.93;;;2.70;;
13114;SDS011;6623;52.120;8.660;2024-03-08T00:07:38;3.10;;;2.80;;
13114;SDS011;6623;52.120;8.660;2024-03-08T00:10:04;3.00;;;2.60;;
13114;SDS011;6623;52.120;8.660;2024-03-08T00:12:32;3.00;;;2.67;;
13114;SDS011;6623;52.120;8.660;2024-03-08T00:14:57;2.60;;;2.40;;
13114;SDS011;6623;52.120;8.660;2024-03-08T00:17:23;3.57;;;2.67;;
13114;SDS011;6623;52.120;8.660;2024-03-08T00:19:50;2.70;;;2.40;;
13114;SDS011;6623;52.120;8.660;2024-03-08T00:22:16;3.23;;;2.93;;
13114;SDS011;6623;52.120;8.660;2024-03-08T00:24:42;2.57;;;2.37;;
13114;SDS011;6623;52.120;8.660;2024-03-08T00:27:08;2.60;;;2.40;;
13114;SDS011;6623;52.120;8.660;2024-03-08T00:29:35;2.87;;;2.40;;
13114;SDS011;6623;52.120;8.660;2024-03-08T00:32:00;3.17;;;2.77;;
13114;SDS011;6623;52.120;8.660;2024-03-08T00:34:26;3.17;;;2.50;;
13114;SDS011;6623;52.120;8.660;2024-03-08T00:36:51;3.13;;;2.77;;
13114;SDS011;6623;52.120;8.660;2024-03-08T00:39:17;2.70;;;2.50;;
13114;SDS011;6623;52.120;8.660;2024-03-08T00:41:45;3.23;;;2.80;;
13114;SDS011;6623;52.120;8.660;2024-03-08T00:44:11;2.93;;;2.50;;
13114;SDS011;6623;52.120;8.660;2024-03-08T00:46:37;2.83;;;2.40;;
13114;SDS011;6623;52.120;8.660;2024-03-08T00:49:03;2.70;;;2.43;;
13114;SDS011;6623;52.120;8.660;2024-03-08T00:51:28;2.70;;;2.33;;
13114;SDS011;6623;52.120;8.660;2024-03-08T00:53:54;3.17;;;2.60;;
13114;SDS011;6623;52.120;8.660;2024-03-08T00:56:19;3.20;;;2.30;;
13114;SDS011;6623;52.120;8.660;2024-03-08T00:58:45;3.03;;;2.70;;
13114;SDS011;6623;52.120;8.660;2024-03-08T01:01:12;2.50;;;2.30;;
13114;SDS011;6623;52.120;8.660;2024-03-08T01:03:41;2.50;;;2.30;;
13114;SDS011;6623;52.120;8.660;2024-03-08T01:06:08;2.23;;;2.00;;
13114;SDS011;6623;52.120;8.660;2024-03-08T01:08:33;2.70;;;2.33;;
13114;SDS011;6623;52.120;8.660;2024-03-08T01:10:59;2.80;;;2.43;;
13114;SDS011;6623;52.120;8.660;2024-03-08T01:13:24;3.87;;;2.60;;
13114;SDS011;6623;52.120;8.660;2024-03-08T01:15:50;2.90;;;2.30;;
13114;SDS011;6623;52.120;8.660;2024-03-08T01:18:16;2.73;;;2.13;;
13114;SDS011;6623;52.120;8.660;2024-03-08T01:20:41;2.57;;;2.37;;
13114;SDS011;6623;52.120;8.660;2024-03-08T01:23:07;2.77;;;2.30;;
13114;SDS011;6623;52.120;8.660;2024-03-08T01:25:33;2.57;;;2.37;;
13114;SDS011;6623;52.120;8.660;2024-03-08T01:27:59;2.93;;;2.40;;
13114;SDS011;6623;52.120;8.660;2024-03-08T01:30:24;3.03;;;2.40;;
13114;SDS011;6623;52.120;8.660;2024-03-08T01:32:50;2.43;;;2.23;;
13114;SDS011;6623;52.120;8.660;2024-03-08T01:35:15;2.50;;;2.20;;
13114;SDS011;6623;52.120;8.660;2024-03-08T01:37:41;2.80;;;2.37;;
13114;SDS011;6623;52.120;8.660;2024-03-08T01:40:07;2.60;;;2.40;;
13114;SDS011;6623;52.120;8.660;2024-03-08T01:42:33;2.53;;;2.10;;
13114;SDS011;6623;52.120;8.660;2024-03-08T01:45:02;2.40;;;2.20;;
13114;SDS011;6623;52.120;8.660;2024-03-08T01:47:29;2.60;;;2.23;;
13114;SDS011;6623;52.120;8.660;2024-03-08T01:49:57;2.87;;;2.57;;
13114;SDS011;6623;52.120;8.660;2024-03-08T01:52:24;2.60;;;2.40;;
13114;SDS011;6623;52.120;8.660;2024-03-08T01:54:51;2.53;;;2.30;;
13114;SDS011;6623;52.120;8.660;2024-03-08T01:57:17;2.67;;;2.40;;
13114;SDS011;6623;52.120;8.660;2024-03-08T01:59:42;2.77;;;2.40;;
13114;SDS011;6623;52.120;8.660;2024-03-08T02:02:08;2.60;;;2.40;;
13114;SDS011;6623;52.120;8.660;2024-03-08T02:04:36;2.37;;;2.17;;
13114;SDS011;6623;52.120;8.660;2024-03-08T02:07:03;2.80;;;2.30;;
13114;SDS011;6623;52.120;8.660;2024-03-08T02:09:30;3.03;;;2.60;;
13114;SDS011;6623;52.120;8.660;2024-03-08T02:11:56;2.67;;;2.20;;
13114;SDS011;6623;52.120;8.660;2024-03-08T02:14:22;2.80;;;2.40;;
13114;SDS011;6623;52.120;8.660;2024-03-08T02:16:48;2.50;;;2.30;;
13114;SDS011;6623;52.120;8.660;2024-03-08T02:19:14;2.50;;;2.30;;
13114;SDS011;6623;52.120;8.660;2024-03-08T02:21:39;3.00;;;2.30;;
13114;SDS011;6623;52.120;8.660;2024-03-08T02:24:05;2.67;;;2.40;;
13114;SDS011;6623;52.120;8.660;2024-03-08T02:26:31;3.10;;;2.40;;
13114;SDS011;6623;52.120;8.660;2024-03-08T02:28:56;2.30;;;2.10;;
13114;SDS011;6623;52.120;8.660;2024-03-08T02:31:22;2.67;;;2.47;;
13114;SDS011;6623;52.120;8.660;2024-03-08T02:33:47;2.77;;;2.40;;
13114;SDS011;6623;52.120;8.660;2024-03-08T02:36:13;3.10;;;2.23;;
13114;SDS011;6623;52.120;8.660;2024-03-08T02:38:39;2.60;;;2.40;;
13114;SDS011;6623;52.120;8.660;2024-03-08T02:41:06;3.13;;;2.50;;
13114;SDS011;6623;52.120;8.660;2024-03-08T02:43:33;2.80;;;2.43;;
13114;SDS011;6623;52.120;8.660;2024-03-08T02:45:59;2.50;;;2.30;;
13114;SDS011;6623;52.120;8.660;2024-03-08T02:48:25;2.53;;;2.10;;
13114;SDS011;6623;52.120;8.660;2024-03-08T02:50:50;2.57;;;2.37;;
13114;SDS011;6623;52.120;8.660;2024-03-08T02:53:16;2.57;;;2.33;;
13114;SDS011;6623;52.120;8.660;2024-03-08T02:55:43;2.33;;;2.10;;
13114;SDS011;6623;52.120;8.660;2024-03-08T02:58:09;2.60;;;2.40;;
13114;SDS011;6623;52.120;8.660;2024-03-08T03:00:35;2.67;;;2.30;;
13114;SDS011;6623;52.120;8.660;2024-03-08T03:03:01;2.50;;;2.30;;
13114;SDS011;6623;52.120;8.660;2024-03-08T03:05:28;2.40;;;2.20;;
13114;SDS011;6623;52.120;8.660;2024-03-08T03:07:57;2.50;;;2.30;;
13114;SDS011;6623;52.120;8.660;2024-03-08T03:10:23;2.10;;;1.90;;
13114;SDS011;6623;52.120;8.660;2024-03-08T03:12:49;2.40;;;2.20;;
13114;SDS011;6623;52.120;8.660;2024-03-08T03:15:14;2.33;;;2.13;;
13114;SDS011;6623;52.120;8.660;2024-03-08T03:17:47;2.67;;;2.20;;
13114;SDS011;6623;52.120;8.660;2024-03-08T03:20:13;2.80;;;2.10;;
13114;SDS011;6623;52.120;8.660;2024-03-08T03:22:40;2.13;;;1.93;;
13114;SDS011;6623;52.120;8.660;2024-03-08T03:25:06;2.40;;;2.20;;
13114;SDS011;6623;52.120;8.660;2024-03-08T03:27:33;2.30;;;2.10;;
13114;SDS011;6623;52.120;8.660;2024-03-08T03:29:58;2.20;;;2.00;;
13114;SDS011;6623;52.120;8.660;2024-03-08T03:32:44;2.47;;;2.03;;
13114;SDS011;6623;52.120;8.660;2024-03-08T03:35:12;2.43;;;2.23;;
13114;SDS011;6623;52.120;8.660;2024-03-08T03:37:38;2.23;;;2.03;;
13114;SDS011;6623;52.120;8.660;2024-03-08T03:40:05;2.50;;;2.13;;
13114;SDS011;6623;52.120;8.660;2024-03-08T03:42:31;2.27;;;1.97;;
13114;SDS011;6623;52.120;8.660;2024-03-08T03:44:56;2.37;;;2.17;;
13114;SDS011;6623;52.120;8.660;2024-03-08T03:47:22;2.50;;;2.17;;
13114;SDS011;6623;52.120;8.660;2024-03-08T03:49:48;2.30;;;2.10;;
13114;SDS011;6623;52.120;8.660;2024-03-08T03:52:13;2.17;;;1.97;;
13114;SDS011;6623;52.120;8.660;2024-03-08T03:54:40;2.70;;;2.27;;
13114;SDS011;6623;52.120;8.660;2024-03-08T03:57:06;2.47;;;2.13;;
13114;SDS011;6623;52.120;8.660;2024-03-08T03:59:32;2.20;;;2.00;;
13114;SDS011;6623;52.120;8.660;2024-03-08T04:01:58;2.30;;;2.00;;
13114;SDS011;6623;52.120;8.660;2024-03-08T04:04:24;2.30;;;2.10;;
13114;SDS011;6623;52.120;8.660;2024-03-08T04:06:49;2.30;;;2.07;;
13114;SDS011;6623;52.120;8.660;2024-03-08T04:09:16;2.40;;;2.20;;
13114;SDS011;6623;52.120;8.660;2024-03-08T04:11:44;2.30;;;2.10;;
13114;SDS011;6623;52.120;8.660;2024-03-08T04:14:09;3.30;;;2.13;;
13114;SDS011;6623;52.120;8.660;2024-03-08T04:16:35;2.30;;;2.00;;
13114;SDS011;6623;52.120;8.660;2024-03-08T04:19:01;2.40;;;2.20;;
13114;SDS011;6623;52.120;8.660;2024-03-08T04:21:29;2.10;;;1.90;;
13114;SDS011;6623;52.120;8.660;2024-03-08T04:23:55;2.53;;;2.10;;
13114;SDS011;6623;52.120;8.660;2024-03-08T04:26:21;2.50;;;2.30;;
13114;SDS011;6623;52.120;8.660;2024-03-08T04:28:47;2.37;;;2.17;;
13114;SDS011;6623;52.120;8.660;2024-03-08T04:31:12;2.20;;;2.00;;
13114;SDS011;6623;52.120;8.660;2024-03-08T04:33:38;2.10;;;1.90;;
13114;SDS011;6623;52.120;8.660;2024-03-08T04:36:03;2.67;;;2.40;;
13114;SDS011;6623;52.120;8.660;2024-03-08T04:38:29;2.50;;;2.20;;
13114;SDS011;6623;52.120;8.660;2024-03-08T04:40:55;2.40;;;2.17;;
13114;SDS011;6623;52.120;8.660;2024-03-08T04:43:22;2.33;;;2.10;;
13114;SDS011;6623;52.120;8.660;2024-03-08T04:45:50;2.53;;;2.10;;
13114;SDS011;6623;52.120;8.660;2024-03-08T04:48:16;2.40;;;2.17;;
13114;SDS011;6623;52.120;8.660;2024-03-08T04:50:41;2.33;;;2.13;;
13114;SDS011;6623;52.120;8.660;2024-03-08T04:53:07;2.30;;;2.10;;
13114;SDS011;6623;52.120;8.660;2024-03-08T04:55:33;2.40;;;2.10;;
13114;SDS011;6623;52.120;8.660;2024-03-08T04:57:59;2.23;;;2.03;;
13114;SDS011;6623;52.120;8.660;2024-03-08T05:00:24;2.53;;;2.33;;
13114;SDS011;6623;52.120;8.660;2024-03-08T05:02:50;2.50;;;2.30;;
13114;SDS011;6623;52.120;8.660;2024-03-08T05:05:18;2.63;;;2.23;;
13114;SDS011;6623;52.120;8.660;2024-03-08T05:07:43;2.20;;;2.00;;
13114;SDS011;6623;52.120;8.660;2024-03-08T05:10:10;2.30;;;2.10;;
13114;SDS011;6623;52.120;8.660;2024-03-08T05:12:36;3.30;;;2.03;;
13114;SDS011;6623;52.120;8.660;2024-03-08T05:15:03;2.30;;;2.10;;
13114;SDS011;6623;52.120;8.660;2024-03-08T05:17:30;3.20;;;2.23;;
13114;SDS011;6623;52.120;8.660;2024-03-08T05:19:55;2.60;;;2.40;;
13114;SDS011;6623;52.120;8.660;2024-03-08T05:22:21;3.90;;;2.40;;
13114;SDS011;6623;52.120;8.660;2024-03-08T05:24:47;2.37;;;2.17;;
13114;SDS011;6623;52.120;8.660;2024-03-08T05:27:13;2.17;;;1.97;;
13114;SDS011;6623;52.120;8.660;2024-03-08T05:29:38;3.20;;;2.23;;
13114;SDS011;6623;52.120;8.660;2024-03-08T05:32:04;2.33;;;2.13;;
13114;SDS011;6623;52.120;8.660;2024-03-08T05:34:29;2.50;;;2.30;;
13114;SDS011;6623;52.120;8.660;2024-03-08T05:36:55;2.37;;;2.03;;
13114;SDS011;6623;52.120;8.660;2024-03-08T05:39:22;2.47;;;2.10;;
13114;SDS011;6623;52.120;8.660;2024-03-08T05:41:48;2.50;;;2.30;;
13114;SDS011;6623;52.120;8.660;2024-03-08T05:44:14;2.23;;;2.03;;
13114;SDS011;6623;52.120;8.660;2024-03-08T05:46:39;2.73;;;2.43;;
13114;SDS011;6623;52.120;8.660;2024-03-08T05:49:05;2.40;;;2.20;;
13114;SDS011;6623;52.120;8.660;2024-03-08T05:51:32;2.50;;;2.30;;
13114;SDS011;6623;52.120;8.660;2024-03-08T05:53:59;2.40;;;2.20;;
13114;SDS011;6623;52.120;8.660;2024-03-08T05:56:30;2.50;;;2.30;;
13114;SDS011;6623;52.120;8.660;2024-03-08T05:58:56;2.40;;;2.20;;
13114;SDS011;6623;52.120;8.660;2024-03-08T06:01:23;2.40;;;2.20;;
13114;SDS011;6623;52.120;8.660;2024-03-08T06:03:49;2.40;;;2.20;;
13114;SDS011;6623;52.120;8.660;2024-03-08T06:06:15;2.60;;;2.40;;
13114;SDS011;6623;52.120;8.660;2024-03-08T06:08:40;2.40;;;2.20;;
13114;SDS011;6623;52.120;8.660;2024-03-08T06:11:08;2.60;;;2.40;;
13114;SDS011;6623;52.120;8.660;2024-03-08T06:13:34;2.83;;;2.57;;
13114;SDS011;6623;52.120;8.660;2024-03-08T06:16:00;2.30;;;2.10;;
13114;SDS011;6623;52.120;8.660;2024-03-08T06:18:29;2.60;;;2.37;;
13114;SDS011;6623;52.120;8.660;2024-03-08T06:20:55;2.60;;;2.30;;
13114;SDS011;6623;52.120;8.660;2024-03-08T06:23:21;2.10;;;1.90;;
13114;SDS011;6623;52.120;8.660;2024-03-08T06:25:47;2.47;;;2.27;;
13114;SDS011;6623;52.120;8.660;2024-03-08T06:28:12;2.50;;;2.30;;
13114;SDS011;6623;52.120;8.660;2024-03-08T06:30:39;2.60;;;2.40;;
13114;SDS011;6623;52.120;8.660;2024-03-08T06:33:05;2.50;;;2.30;;
13114;SDS011;6623;52.120;8.660;2024-03-08T06:35:30;2.57;;;2.17;;
13114;SDS011;6623;52.120;8.660;2024-03-08T06:37:57;2.50;;;2.30;;
13114;SDS011;6623;52.120;8.660;2024-03-08T06:40:23;3.07;;;2.20;;
13114;SDS011;6623;52.120;8.660;2024-03-08T06:42:48;2.47;;;2.27;;
13114;SDS011;6623;52.120;8.660;2024-03-08T06:45:14;2.57;;;2.30;;
13114;SDS011;6623;52.120;8.660;2024-03-08T06:47:44;2.20;;;2.00;;
13114;SDS011;6623;52.120;8.660;2024-03-08T06:50:10;2.40;;;2.20;;
13114;SDS011;6623;52.120;8.660;2024-03-08T06:52:36;3.50;;;2.30;;
13114;SDS011;6623;52.120;8.660;2024-03-08T06:55:03;2.30;;;2.10;;
13114;SDS011;6623;52.120;8.660;2024-03-08T06:57:30;2.27;;;2.00;;
13114;SDS011;6623;52.120;8.660;2024-03-08T06:59:56;2.10;;;1.90;;
13114;SDS011;6623;52.120;8.660;2024-03-08T07:02:22;2.57;;;2.10;;
13114;SDS011;6623;52.120;8.660;2024-03-08T07:04:49;3.27;;;2.50;;
13114;SDS011;6623;52.120;8.660;2024-03-08T07:07:15;2.30;;;2.10;;
13114;SDS011;6623;52.120;8.660;2024-03-08T07:09:41;3.00;;;2.43;;
13114;SDS011;6623;52.120;8.660;2024-03-08T07:12:10;2.87;;;2.30;;
13114;SDS011;6623;52.120;8.660;2024-03-08T07:14:38;2.37;;;2.17;;
13114;SDS011;6623;52.120;8.660;2024-03-08T07:17:07;2.40;;;2.20;;
13114;SDS011;6623;52.120;8.660;2024-03-08T07:19:36;2.30;;;2.10;;
13114;SDS011;6623;52.120;8.660;2024-03-08T07:22:03;2.40;;;2.07;;
13114;SDS011;6623;52.120;8.660;2024-03-08T07:24:29;2.40;;;2.17;;
13114;SDS011;6623;52.120;8.660;2024-03-08T07:27:23;2.40;;;2.17;;
13114;SDS011;6623;52.120;8.660;2024-03-08T07:29:49;2.40;;;2.10;;
13114;SDS011;6623;52.120;8.660;2024-03-08T07:32:14;2.37;;;2.17;;
13114;SDS011;6623;52.120;8.660;2024-03-08T07:34:46;2.20;;;2.00;;
13114;SDS011;6623;52.120;8.660;2024-03-08T07:37:13;2.37;;;2.17;;
13114;SDS011;6623;52.120;8.660;2024-03-08T07:39:39;2.33;;;2.10;;
13114;SDS011;6623;52.120;8.660;2024-03-08T07:42:04;2.70;;;2.00;;
13114;SDS011;6623;52.120;8.660;2024-03-08T07:44:30;2.30;;;2.10;;
13114;SDS011;6623;52.120;8.660;2024-03-08T07:46:57;3.30;;;2.30;;
13114;SDS011;6623;52.120;8.660;2024-03-08T07:49:23;2.30;;;2.10;;
13114;SDS011;6623;52.120;8.660;2024-03-08T07:51:49;2.70;;;2.30;;
13114;SDS011;6623;52.120;8.660;2024-03-08T07:54:15;2.30;;;2.10;;
13114;SDS011;6623;52.120;8.660;2024-03-08T07:56:40;2.50;;;2.30;;
13114;SDS011;6623;52.120;8.660;2024-03-08T07:59:07;2.50;;;2.30;;
13114;SDS011;6623;52.120;8.660;2024-03-08T08:01:33;2.30;;;2.10;;
13114;SDS011;6623;52.120;8.660;2024-03-08T08:03:58;2.40;;;2.10;;
13114;SDS011;6623;52.120;8.660;2024-03-08T08:06:26;2.43;;;2.23;;
13114;SDS011;6623;52.120;8.660;2024-03-08T08:08:52;2.67;;;2.30;;
13114;SDS011;6623;52.120;8.660;2024-03-08T08:11:17;2.30;;;2.10;;
13114;SDS011;6623;52.120;8.660;2024-03-08T08:13:43;2.80;;;2.50;;
13114;SDS011;6623;52.120;8.660;2024-03-08T08:16:08;2.50;;;2.30;;
13114;SDS011;6623;52.120;8.660;2024-03-08T08:18:35;2.70;;;2.50;;
13114;SDS011;6623;52.120;8.660;2024-03-08T08:21:01;2.33;;;2.13;;
13114;SDS011;6623;52.120;8.660;2024-03-08T08:23:27;2.43;;;2.20;;
13114;SDS011;6623;52.120;8.660;2024-03-08T08:25:54;3.50;;;2.37;;
13114;SDS011;6623;52.120;8.660;2024-03-08T08:28:20;2.93;;;2.17;;
13114;SDS011;6623;52.120;8.660;2024-03-08T08:30:46;3.17;;;2.33;;
13114;SDS011;6623;52.120;8.660;2024-03-08T08:33:11;2.30;;;2.10;;
13114;SDS011;6623;52.120;8.660;2024-03-08T08:35:37;2.73;;;2.23;;
13114;SDS011;6623;52.120;8.660;2024-03-08T08:38:03;3.63;;;2.40;;
13114;SDS011;6623;52.120;8.660;2024-03-08T08:40:29;2.53;;;2.00;;
13114;SDS011;6623;52.120;8.660;2024-03-08T08:42:57;2.63;;;2.43;;
13114;SDS011;6623;52.120;8.660;2024-03-08T08:45:25;2.83;;;2.43;;
13114;SDS011;6623;52.120;8.660;2024-03-08T08:47:51;2.60;;;2.40;;
13114;SDS011;6623;52.120;8.660;2024-03-08T08:50:17;2.30;;;2.10;;
13114;SDS011;6623;52.120;8.660;2024-03-08T08:52:48;2.30;;;2.10;;
13114;SDS011;6623;52.120;8.660;2024-03-08T08:55:14;2.70;;;2.30;;
13114;SDS011;6623;52.120;8.660;2024-03-08T08:57:40;2.80;;;2.50;;
13114;SDS011;6623;52.120;8.660;2024-03-08T09:00:06;2.50;;;2.30;;
13114;SDS011;6623;52.120;8.660;2024-03-08T09:02:40;2.50;;;2.30;;
13114;SDS011;6623;52.120;8.660;2024-03-08T09:05:06;2.60;;;2.40;;
13114;SDS011;6623;52.120;8.660;2024-03-08T09:07:34;3.30;;;2.60;;
13114;SDS011;6623;52.120;8.660;2024-03-08T09:10:00;2.63;;;2.43;;
13114;SDS011;6623;52.120;8.660;2024-03-08T09:12:26;2.67;;;2.20;;
13114;SDS011;6623;52.120;8.660;2024-03-08T09:14:51;2.93;;;2.37;;
13114;SDS011;6623;52.120;8.660;2024-03-08T09:17:17;3.47;;;2.47;;
13114;SDS011;6623;52.120;8.660;2024-03-08T09:19:45;2.90;;;2.43;;
13114;SDS011;6623;52.120;8.660;2024-03-08T09:22:12;2.60;;;2.40;;
13114;SDS011;6623;52.120;8.660;2024-03-08T09:24:38;2.50;;;2.30;;
13114;SDS011;6623;52.120;8.660;2024-03-08T09:27:04;3.70;;;2.40;;
13114;SDS011;6623;52.120;8.660;2024-03-08T09:29:29;3.00;;;2.40;;
13114;SDS011;6623;52.120;8.660;2024-03-08T09:31:55;2.67;;;2.30;;
13114;SDS011;6623;52.120;8.660;2024-03-08T09:34:20;2.60;;;2.40;;
13114;SDS011;6623;52.120;8.660;2024-03-08T09:36:46;3.03;;;2.70;;
13114;SDS011;6623;52.120;8.660;2024-03-08T09:39:12;2.83;;;2.53;;
13114;SDS011;6623;52.120;8.660;2024-03-08T09:41:42;2.97;;;2.53;;
13114;SDS011;6623;52.120;8.660;2024-03-08T09:44:08;2.70;;;2.50;;
13114;SDS011;6623;52.120;8.660;2024-03-08T09:46:34;2.87;;;2.60;;
13114;SDS011;6623;52.120;8.660;2024-03-08T09:49:00;2.93;;;2.53;;
13114;SDS011;6623;52.120;8.660;2024-03-08T09:51:29;2.60;;;2.07;;
13114;SDS011;6623;52.120;8.660;2024-03-08T09:53:59;4.87;;;2.60;;
13114;SDS011;6623;52.120;8.660;2024-03-08T09:56:25;3.60;;;2.50;;
13114;SDS011;6623;52.120;8.660;2024-03-08T09:58:52;2.97;;;2.53;;
13114;SDS011;6623;52.120;8.660;2024-03-08T10:01:36;2.80;;;2.40;;
13114;SDS011;6623;52.120;8.660;2024-03-08T10:04:03;2.63;;;2.43;;
13114;SDS011;6623;52.120;8.660;2024-03-08T10:06:29;2.40;;;2.20;;
13114;SDS011;6623;52.120;8.660;2024-03-08T10:08:56;3.20;;;2.40;;
13114;SDS011;6623;52.120;8.660;2024-03-08T10:11:22;2.33;;;2.13;;
13114;SDS011;6623;52.120;8.660;2024-03-08T10:13:48;3.33;;;2.40;;
13114;SDS011;6623;52.120;8.660;2024-03-08T10:16:14;2.70;;;2.50;;
13114;SDS011;6623;52.120;8.660;2024-03-08T10:18:41;2.60;;;2.40;;
13114;SDS011;6623;52.120;8.660;2024-03-08T10:21:08;5.07;;;2.33;;
13114;SDS011;6623;52.120;8.660;2024-03-08T10:23:35;3.23;;;2.57;;
13114;SDS011;6623;52.120;8.660;2024-03-08T10:26:11;2.63;;;2.43;;
13114;SDS011;6623;52.120;8.660;2024-03-08T10:28:40;2.90;;;2.60;;
13114;SDS011;6623;52.120;8.660;2024-03-08T10:31:16;3.40;;;2.67;;
13114;SDS011;6623;52.120;8.660;2024-03-08T10:33:43;3.27;;;2.40;;
13114;SDS011;6623;52.120;8.660;2024-03-08T10:36:09;2.40;;;2.20;;
13114;SDS011;6623;52.120;8.660;2024-03-08T10:38:36;2.60;;;2.30;;
13114;SDS011;6623;52.120;8.660;2024-03-08T10:41:07;2.57;;;2.37;;
13114;SDS011;6623;52.120;8.660;2024-03-08T10:43:40;2.47;;;2.27;;
13114;SDS011;6623;52.120;8.660;2024-03-08T10:49:12;2.77;;;2.30;;
13114;SDS011;6623;52.120;8.660;2024-03-08T10:51:42;2.73;;;2.30;;
13114;SDS011;6623;52.120;8.660;2024-03-08T10:54:09;2.70;;;2.50;;
13114;SDS011;6623;52.120;8.660;2024-03-08T10:56:36;2.63;;;2.43;;
13114;SDS011;6623;52.120;8.660;2024-03-08T10:59:02;2.90;;;2.60;;
13114;SDS011;6623;52.120;8.660;2024-03-08T11:01:29;2.80;;;2.57;;
13114;SDS011;6623;52.120;8.660;2024-03-08T11:03:55;2.60;;;2.40;;
13114;SDS011;6623;52.120;8.660;2024-03-08T11:06:22;3.10;;;2.73;;
13114;SDS011;6623;52.120;8.660;2024-03-08T11:08:55;2.70;;;2.50;;
13114;SDS011;6623;52.120;8.660;2024-03-08T11:11:27;2.60;;;2.40;;
13114;SDS011;6623;52.120;8.660;2024-03-08T11:13:57;2.77;;;2.50;;
13114;SDS011;6623;52.120;8.660;2024-03-08T11:18:59;2.83;;;2.63;;
13114;SDS011;6623;52.120;8.660;2024-03-08T11:21:29;2.73;;;2.50;;
13114;SDS011;6623;52.120;8.660;2024-03-08T11:24:01;2.87;;;2.57;;
13114;SDS011;6623;52.120;8.660;2024-03-08T11:26:28;3.20;;;2.90;;
13114;SDS011;6623;52.120;8.660;2024-03-08T11:28:56;2.97;;;2.40;;
13114;SDS011;6623;52.120;8.660;2024-03-08T11:32:17;2.83;;;2.30;;
13114;SDS011;6623;52.120;8.660;2024-03-08T11:34:47;3.07;;;2.50;;
13114;SDS011;6623;52.120;8.660;2024-03-08T11:37:15;3.00;;;2.60;;
13114;SDS011;6623;52.120;8.660;2024-03-08T11:39:46;3.07;;;2.27;;
13114;SDS011;6623;52.120;8.660;2024-03-08T11:42:16;3.10;;;2.80;;
13114;SDS011;6623;52.120;8.660;2024-03-08T11:44:43;3.00;;;2.70;;
13114;SDS011;6623;52.120;8.660;2024-03-08T11:47:12;2.60;;;2.40;;
13114;SDS011;6623;52.120;8.660;2024-03-08T11:49:39;2.97;;;2.67;;
13114;SDS011;6623;52.120;8.660;2024-03-08T11:52:10;2.80;;;2.60;;
13114;SDS011;6623;52.120;8.660;2024-03-08T11:54:38;2.63;;;2.43;;
13114;SDS011;6623;52.120;8.660;2024-03-08T11:57:04;2.87;;;2.50;;
13114;SDS011;6623;52.120;8.660;2024-03-08T11:59:30;3.30;;;3.00;;
13114;SDS011;6623;52.120;8.660;2024-03-08T12:02:03;2.50;;;2.30;;
13114;SDS011;6623;52.120;8.660;2024-03-08T12:04:30;3.57;;;2.67;;
13114;SDS011;6623;52.120;8.660;2024-03-08T12:06:57;2.60;;;2.40;;
13114;SDS011;6623;52.120;8.660;2024-03-08T12:09:26;2.73;;;2.40;;
13114;SDS011;6623;52.120;8.660;2024-03-08T12:11:52;2.73;;;2.50;;
13114;SDS011;6623;52.120;8.660;2024-03-08T12:14:18;3.43;;;2.93;;
13114;SDS011;6623;52.120;8.660;2024-03-08T12:16:44;3.17;;;2.87;;
13114;SDS011;6623;52.120;8.660;2024-03-08T12:19:09;3.37;;;2.50;;
13114;SDS011;6623;52.120;8.660;2024-03-08T12:21:35;2.80;;;2.60;;
13114;SDS011;6623;52.120;8.660;2024-03-08T12:24:05;2.90;;;2.60;;
13114;SDS011;6623;52.120;8.660;2024-03-08T12:26:37;3.03;;;2.73;;
13114;SDS011;6623;52.120;8.660;2024-03-08T12:31:52;2.90;;;2.43;;
13114;SDS011;6623;52.120;8.660;2024-03-08T12:34:18;2.60;;;2.40;;
13114;SDS011;6623;52.120;8.660;2024-03-08T12:36:47;2.60;;;2.40;;
13114;SDS011;6623;52.120;8.660;2024-03-08T12:39:18;2.77;;;2.57;;
13114;SDS011;6623;52.120;8.660;2024-03-08T12:42:02;2.57;;;2.37;;
13114;SDS011;6623;52.120;8.660;2024-03-08T12:44:28;3.40;;;2.80;;
13114;SDS011;6623;52.120;8.660;2024-03-08T12:46:54;3.30;;;2.67;;
13114;SDS011;6623;52.120;8.660;2024-03-08T12:49:20;2.87;;;2.67;;
13114;SDS011;6623;52.120;8.660;2024-03-08T12:51:47;3.30;;;2.80;;
13114;SDS011;6623;52.120;8.660;2024-03-08T12:54:13;2.70;;;2.50;;
13114;SDS011;6623;52.120;8.660;2024-03-08T12:56:38;3.63;;;2.90;;
13114;SDS011;6623;52.120;8.660;2024-03-08T12:59:05;3.43;;;2.77;;
13114;SDS011;6623;52.120;8.660;2024-03-08T13:01:32;2.67;;;2.47;;
13114;SDS011;6623;52.120;8.660;2024-03-08T13:03:59;2.70;;;2.50;;
13114;SDS011;6623;52.120;8.660;2024-03-08T13:06:26;2.73;;;2.53;;
13114;SDS011;6623;52.120;8.660;2024-03-08T13:08:53;2.97;;;2.43;;
13114;SDS011;6623;52.120;8.660;2024-03-08T13:11:20;2.80;;;2.47;;
13114;SDS011;6623;52.120;8.660;2024-03-08T13:13:46;2.93;;;2.43;;
13114;SDS011;6623;52.120;8.660;2024-03-08T13:16:12;3.17;;;2.87;;
13114;SDS011;6623;52.120;8.660;2024-03-08T13:18:40;3.10;;;2.70;;
13114;SDS011;6623;52.120;8.660;2024-03-08T13:21:09;2.90;;;2.70;;
13114;SDS011;6623;52.120;8.660;2024-03-08T13:23:36;2.83;;;2.57;;
13114;SDS011;6623;52.120;8.660;2024-03-08T13:26:08;3.63;;;3.10;;
13114;SDS011;6623;52.120;8.660;2024-03-08T13:28:37;3.07;;;2.77;;
13114;SDS011;6623;52.120;8.660;2024-03-08T13:31:03;3.17;;;2.87;;
13114;SDS011;6623;52.120;8.660;2024-03-08T13:33:31;2.93;;;2.70;;
13114;SDS011;6623;52.120;8.660;2024-03-08T13:36:01;3.10;;;2.80;;
13114;SDS011;6623;52.120;8.660;2024-03-08T13:38:29;2.80;;;2.50;;
13114;SDS011;6623;52.120;8.660;2024-03-08T13:40:57;3.37;;;3.03;;
13114;SDS011;6623;52.120;8.660;2024-03-08T13:43:22;4.03;;;2.80;;
13114;SDS011;6623;52.120;8.660;2024-03-08T13:45:48;2.70;;;2.37;;
13114;SDS011;6623;52.120;8.660;2024-03-08T13:48:14;3.27;;;2.70;;
13114;SDS011;6623;52.120;8.660;2024-03-08T13:50:41;3.30;;;2.70;;
13114;SDS011;6623;52.120;8.660;2024-03-08T13:53:06;2.90;;;2.60;;
13114;SDS011;6623;52.120;8.660;2024-03-08T13:55:32;2.93;;;2.67;;
13114;SDS011;6623;52.120;8.660;2024-03-08T13:57:58;3.63;;;2.90;;
13114;SDS011;6623;52.120;8.660;2024-03-08T14:00:24;2.97;;;2.70;;
13114;SDS011;6623;52.120;8.660;2024-03-08T14:02:52;2.90;;;2.70;;
13114;SDS011;6623;52.120;8.660;2024-03-08T14:05:18;2.83;;;2.53;;
13114;SDS011;6623;52.120;8.660;2024-03-08T14:07:44;3.00;;;2.70;;
13114;SDS011;6623;52.120;8.660;2024-03-08T14:10:13;3.20;;;2.90;;
13114;SDS011;6623;52.120;8.660;2024-03-08T14:12:39;3.27;;;2.90;;
13114;SDS011;6623;52.120;8.660;2024-03-08T14:15:05;2.60;;;2.40;;
13114;SDS011;6623;52.120;8.660;2024-03-08T14:17:31;3.53;;;3.17;;
13114;SDS011;6623;52.120;8.660;2024-03-08T14:19:57;3.03;;;2.73;;
13114;SDS011;6623;52.120;8.660;2024-03-08T14:22:24;3.23;;;2.93;;
13114;SDS011;6623;52.120;8.660;2024-03-08T14:24:49;3.13;;;2.83;;
13114;SDS011;6623;52.120;8.660;2024-03-08T14:27:16;3.47;;;3.07;;
13114;SDS011;6623;52.120;8.660;2024-03-08T14:29:43;3.20;;;2.90;;
13114;SDS011;6623;52.120;8.660;2024-03-08T14:32:09;3.80;;;2.80;;
13114;SDS011;6623;52.120;8.660;2024-03-08T14:34:35;3.23;;;2.90;;
13114;SDS011;6623;52.120;8.660;2024-03-08T14:37:01;3.23;;;2.90;;
13114;SDS011;6623;52.120;8.660;2024-03-08T14:39:30;3.33;;;2.77;;
13114;SDS011;6623;52.120;8.660;2024-03-08T14:41:58;3.13;;;2.80;;
13114;SDS011;6623;52.120;8.660;2024-03-08T14:44:25;3.20;;;2.90;;
13114;SDS011;6623;52.120;8.660;2024-03-08T14:46:53;3.40;;;3.10;;
13114;SDS011;6623;52.120;8.660;2024-03-08T14:49:21;3.23;;;2.93;;
13114;SDS011;6623;52.120;8.660;2024-03-08T14:51:47;3.40;;;3.10;;
13114;SDS011;6623;52.120;8.660;2024-03-08T14:54:12;3.77;;;3.17;;
13114;SDS011;6623;52.120;8.660;2024-03-08T14:56:38;3.27;;;2.90;;
13114;SDS011;6623;52.120;8.660;2024-03-08T14:59:07;3.27;;;2.90;;
13114;SDS011;6623;52.120;8.660;2024-03-08T15:01:34;3.37;;;3.07;;
13114;SDS011;6623;52.120;8.660;2024-03-08T15:04:01;3.50;;;3.10;;
13114;SDS011;6623;52.120;8.660;2024-03-08T15:06:36;3.40;;;3.10;;